Time;durP1;ratioP1;P1;durP2;ratioP2;P2;SDS_P1;SDS_P2;PMS_P1;PMS_P2;Temp;Humidity;BMP_temperature;BMP_pressure;BME280_temperature;BME280_humidity;BME280_pressure;Samples;Min_cycle;Max_cycle;Signal;HPM_P1;HPM_P2
2023/01/28 00:00:33;;;;;;;6.70;5.25;;;2.10;99.90;;;;;;5066270;28;20251;-74
2023/01/28 00:02:59;;;;;;;7.82;5.25;;;3.00;99.90;;;;;;5100500;28;20042;-75
2023/01/28 00:06:00;;;;;;;6.80;4.82;;;2.20;99.90;;;;;;5069779;28;20035;-77
2023/01/28 00:08:25;;;;;;;5.72;4.70;;;0.60;99.90;;;;;;5078495;28;20076;-75
2023/01/28 00:10:51;;;;;;;6.10;5.03;;;2.50;99.90;;;;;;5063865;28;20024;-75
2023/01/28 00:13:17;;;;;;;6.15;5.15;;;3.00;99.90;;;;;;5077733;28;20028;-74
2023/01/28 00:15:43;;;;;;;5.97;5.00;;;2.10;99.90;;;;;;5098510;28;20027;-74
2023/01/28 00:18:09;;;;;;;5.70;4.40;;;2.30;99.90;;;;;;5083980;28;20062;-74
2023/01/28 00:20:35;;;;;;;7.15;5.50;;;2.10;99.90;;;;;;5082571;28;20092;-75
2023/01/28 00:23:00;;;;;;;7.25;5.65;;;3.00;99.90;;;;;;5074217;28;20042;-76
2023/01/28 00:25:26;;;;;;;6.72;5.30;;;2.30;99.90;;;;;;5085483;28;20027;-75
2023/01/28 00:27:52;;;;;;;7.00;4.93;;;2.20;99.90;;;;;;5100196;28;20019;-74
2023/01/28 00:30:18;;;;;;;8.13;5.45;;;2.20;99.90;;;;;;5094651;28;20032;-75
2023/01/28 00:32:44;;;;;;;6.18;4.72;;;2.20;99.90;;;;;;5080602;28;20043;-75
2023/01/28 00:35:10;;;;;;;7.32;5.50;;;4.00;99.90;;;;;;5066370;28;20074;-74
2023/01/28 00:37:36;;;;;;;7.03;4.93;;;2.10;99.90;;;;;;5092567;28;20270;-74
2023/01/28 00:40:02;;;;;;;7.72;6.45;;;3.10;99.90;;;;;;5093397;28;20035;-76
2023/01/28 00:42:28;;;;;;;7.65;5.93;;;2.10;99.90;;;;;;5065439;28;20178;-73
2023/01/28 00:44:53;;;;;;;8.07;5.45;;;2.10;99.90;;;;;;5060215;28;20036;-74
2023/01/28 00:47:20;;;;;;;6.95;4.88;;;2.10;99.90;;;;;;5086412;28;20039;-75
2023/01/28 00:49:45;;;;;;;7.10;5.45;;;2.10;99.90;;;;;;5062422;28;20173;-74
2023/01/28 00:52:12;;;;;;;5.75;4.78;;;3.40;99.90;;;;;;5077371;28;20283;-74
2023/01/28 00:54:37;;;;;;;7.63;5.38;;;2.10;99.90;;;;;;5075672;28;20066;-74
2023/01/28 00:57:03;;;;;;;8.00;6.20;;;2.10;99.90;;;;;;5068603;28;20226;-75
2023/01/28 00:59:29;;;;;;;7.80;5.72;;;2.10;99.90;;;;;;5098538;28;20221;-74
2023/01/28 01:02:10;;;;;;;6.78;5.28;;;2.00;99.90;;;;;;5069452;28;20027;-74
2023/01/28 01:04:36;;;;;;;7.22;4.90;;;4.00;99.90;;;;;;5084115;28;20099;-74
2023/01/28 01:07:02;;;;;;;6.82;5.43;;;3.40;99.90;;;;;;5051689;28;20036;-74
2023/01/28 01:12:52;;;;;;;8.57;6.07;;;2.10;99.90;;;;;;5061058;28;20041;-77
2023/01/28 01:15:18;;;;;;;7.60;5.80;;;2.80;99.90;;;;;;5038835;28;20044;-74
2023/01/28 01:17:47;;;;;;;8.63;5.47;;;2.10;99.90;;;;;;5039361;28;20058;-74
2023/01/28 01:20:25;;;;;;;8.63;6.45;;;2.10;99.90;;;;;;5047544;28;20044;-75
2023/01/28 01:22:50;;;;;;;6.82;5.40;;;2.10;99.90;;;;;;5041048;28;20036;-73
2023/01/28 01:29:00;;;;;;;7.18;5.68;;;2.10;99.90;;;;;;5024538;28;20071;-74
2023/01/28 01:31:26;;;;;;;9.15;5.50;;;2.10;99.90;;;;;;5019579;28;20029;-74
2023/01/28 01:34:17;;;;;;;7.80;5.65;;;2.10;99.90;;;;;;5052079;28;20040;-74
2023/01/28 01:36:43;;;;;;;7.30;5.00;;;2.80;99.90;;;;;;5013615;28;20333;-74
2023/01/28 01:39:12;;;;;;;6.65;5.60;;;3.50;99.90;;;;;;5027215;28;20036;-74
2023/01/28 01:45:24;;;;;;;8.15;6.15;;;2.00;99.90;;;;;;5053820;28;20092;-75
2023/01/28 01:48:04;;;;;;;5.45;4.35;;;2.40;99.90;;;;;;5064186;28;20040;-75
2023/01/28 01:50:35;;;;;;;3.88;3.30;;;2.00;99.90;;;;;;5068383;28;20111;-74
2023/01/28 01:53:14;;;;;;;3.85;3.25;;;2.30;99.90;;;;;;5071862;28;20234;-74
2023/01/28 01:55:45;;;;;;;6.65;3.60;;;2.00;99.90;;;;;;5078474;28;20040;-74
2023/01/28 01:58:16;;;;;;;3.13;2.83;;;3.60;99.90;;;;;;5078703;28;20204;-74
2023/01/28 02:00:42;;;;;;;2.67;2.35;;;2.80;99.90;;;;;;5056719;28;20082;-74
2023/01/28 02:03:09;;;;;;;3.17;2.20;;;2.60;99.90;;;;;;5071304;28;20072;-74
2023/01/28 02:05:37;;;;;;;2.67;2.45;;;2.10;99.90;;;;;;5045760;28;20036;-74
2023/01/28 02:08:21;;;;;;;2.92;2.50;;;2.10;99.90;;;;;;5055148;28;20024;-74
2023/01/28 02:10:55;;;;;;;3.25;2.85;;;2.10;99.90;;;;;;5045201;28;20025;-74
2023/01/28 02:13:25;;;;;;;3.67;2.80;;;2.10;99.90;;;;;;5070230;28;20051;-73
2023/01/28 02:15:52;;;;;;;8.00;4.38;;;2.10;99.90;;;;;;5078214;28;20039;-74
2023/01/28 02:18:18;;;;;;;4.22;3.30;;;2.00;99.90;;;;;;5045894;28;20108;-74
2023/01/28 02:21:00;;;;;;;4.13;3.70;;;2.10;99.90;;;;;;5076912;28;20036;-74
2023/01/28 02:23:44;;;;;;;4.00;3.35;;;2.10;99.90;;;;;;5049201;28;20079;-74
2023/01/28 02:26:44;;;;;;;3.72;3.05;;;4.00;99.90;;;;;;5057673;28;20349;-75
2023/01/28 02:29:30;;;;;;;3.83;3.05;;;2.10;99.90;;;;;;5047538;28;20229;-75
2023/01/28 02:32:30;;;;;;;3.88;3.10;;;2.10;99.90;;;;;;5052123;28;20060;-76
2023/01/28 02:35:05;;;;;;;4.82;2.97;;;2.00;99.90;;;;;;5072341;28;20040;-76
2023/01/28 02:37:42;;;;;;;3.95;3.00;;;2.10;99.90;;;;;;5080683;28;20094;-75
2023/01/28 02:40:13;;;;;;;5.25;3.35;;;2.00;99.90;;;;;;5086991;28;20039;-75
2023/01/28 02:43:01;;;;;;;3.53;3.17;;;2.10;99.90;;;;;;5087546;28;20326;-75
2023/01/28 02:48:28;;;;;;;4.45;3.10;;;3.60;99.90;;;;;;5084852;28;20035;-76
2023/01/28 02:51:10;;;;;;;3.50;2.97;;;2.10;99.90;;;;;;5082620;28;20235;-75
2023/01/28 02:53:48;;;;;;;4.00;3.17;;;2.10;99.90;;;;;;5081831;28;20040;-75
2023/01/28 02:56:44;;;;;;;4.78;3.15;;;2.80;99.90;;;;;;5096823;28;20089;-75
2023/01/28 02:59:35;;;;;;;4.75;3.20;;;2.50;99.90;;;;;;5098996;28;20063;-75
2023/01/28 03:02:04;;;;;;;5.45;3.20;;;2.00;99.90;;;;;;5096529;28;20040;-74
2023/01/28 03:04:59;;;;;;;5.40;3.60;;;2.10;99.90;;;;;;5095501;28;21494;-74
2023/01/28 03:07:28;;;;;;;3.43;2.73;;;2.00;99.90;;;;;;5080033;28;20030;-74
2023/01/28 03:09:57;;;;;;;3.95;2.90;;;2.30;99.90;;;;;;5082754;28;20065;-74
2023/01/28 03:38:48;;;;;;;4.60;3.88;;;2.80;99.90;;;;;;5095119;28;20126;-76
2023/01/28 03:41:22;;;;;;;5.38;3.83;;;2.00;99.90;;;;;;5067887;28;20086;-75
2023/01/28 03:43:49;;;;;;;4.88;3.40;;;2.00;99.90;;;;;;5080209;28;20024;-75
2023/01/28 03:46:21;;;;;;;4.93;3.70;;;2.00;99.90;;;;;;5082120;28;20043;-75
2023/01/28 03:48:47;;;;;;;4.30;3.40;;;2.00;99.90;;;;;;5062794;28;20077;-75
2023/01/28 03:51:14;;;;;;;3.50;3.00;;;3.30;99.90;;;;;;5082767;28;20032;-75
2023/01/28 03:53:40;;;;;;;4.38;3.60;;;2.00;99.90;;;;;;5092804;28;20040;-75
2023/01/28 03:56:07;;;;;;;3.92;3.10;;;3.00;99.90;;;;;;5082043;28;20032;-75
2023/01/28 03:58:51;;;;;;;6.05;3.38;;;2.10;99.90;;;;;;5095311;28;20042;-75
2023/01/28 04:01:18;;;;;;;3.75;3.13;;;2.60;99.90;;;;;;5096598;28;20406;-76
2023/01/28 04:03:43;;;;;;;4.07;3.38;;;2.60;99.90;;;;;;5076659;28;20093;-76
2023/01/28 04:06:09;;;;;;;4.68;3.88;;;2.10;99.90;;;;;;5076829;28;20036;-76
2023/01/28 04:08:35;;;;;;;4.75;3.80;;;2.00;99.90;;;;;;5078823;28;20032;-75
2023/01/28 04:11:14;;;;;;;5.38;3.72;;;2.40;99.90;;;;;;5094992;28;20032;-75
2023/01/28 04:13:43;;;;;;;5.05;3.80;;;2.80;99.90;;;;;;5079262;28;20032;-75
2023/01/28 04:16:13;;;;;;;5.55;3.75;;;3.50;99.90;;;;;;5063771;28;20043;-75
2023/01/28 04:18:38;;;;;;;5.38;3.95;;;2.00;99.90;;;;;;5062340;28;20062;-76
2023/01/28 04:21:04;;;;;;;6.70;4.22;;;2.00;99.90;;;;;;5076744;28;20020;-75
2023/01/28 04:23:30;;;;;;;6.20;4.43;;;2.00;99.90;;;;;;5078331;28;20113;-75
2023/01/28 04:25:56;;;;;;;4.65;3.88;;;4.10;99.90;;;;;;5081270;28;20074;-75
2023/01/28 04:28:26;;;;;;;7.25;4.18;;;2.50;99.90;;;;;;5078235;28;20035;-76
2023/01/28 04:30:52;;;;;;;7.60;4.18;;;1.80;99.90;;;;;;5072552;28;20062;-75
2023/01/28 04:33:23;;;;;;;6.07;3.90;;;1.90;99.90;;;;;;5059378;28;20323;-75
2023/01/28 04:35:54;;;;;;;5.13;4.60;;;3.80;99.90;;;;;;5076210;28;20343;-75
2023/01/28 04:38:19;;;;;;;4.75;3.83;;;2.80;99.90;;;;;;5077946;28;20295;-74
2023/01/28 04:40:49;;;;;;;6.07;3.92;;;1.90;99.90;;;;;;5079242;28;20042;-75
2023/01/28 04:43:14;;;;;;;5.60;3.95;;;2.00;99.90;;;;;;5059320;28;20162;-75
2023/01/28 04:45:40;;;;;;;4.70;3.95;;;4.10;99.90;;;;;;5073836;28;20450;-75
2023/01/28 04:48:06;;;;;;;4.88;3.50;;;2.00;99.90;;;;;;5060386;28;20027;-74
2023/01/28 04:50:34;;;;;;;4.57;3.65;;;3.70;99.90;;;;;;5089215;28;20373;-76
2023/01/28 04:53:00;;;;;;;4.20;3.08;;;1.90;99.90;;;;;;5096137;28;20081;-75
2023/01/28 04:55:29;;;;;;;4.32;3.75;;;1.90;99.90;;;;;;5073995;28;20020;-75
2023/01/28 04:57:54;;;;;;;5.65;4.00;;;1.90;99.90;;;;;;5079403;28;20071;-75
2023/01/28 05:00:20;;;;;;;5.63;4.22;;;2.90;99.90;;;;;;5062366;28;20031;-75
2023/01/28 05:02:46;;;;;;;4.97;4.03;;;1.90;99.90;;;;;;5094249;28;20182;-75
2023/01/28 05:05:12;;;;;;;4.45;3.78;;;2.10;99.90;;;;;;5079163;28;20031;-75
2023/01/28 05:07:37;;;;;;;4.15;3.63;;;1.90;99.90;;;;;;5094038;28;20365;-75
2023/01/28 05:10:04;;;;;;;3.80;3.25;;;3.10;99.90;;;;;;5080746;28;20040;-75
2023/01/28 05:12:31;;;;;;;4.93;3.80;;;1.90;99.90;;;;;;5075647;28;20046;-73
2023/01/28 05:14:59;;;;;;;5.18;3.50;;;1.90;99.90;;;;;;5074731;28;20028;-74
2023/01/28 05:17:26;;;;;;;4.68;3.28;;;3.20;99.90;;;;;;5082808;28;20059;-75
2023/01/28 05:19:54;;;;;;;5.15;3.80;;;1.90;99.90;;;;;;5070752;28;20241;-75
2023/01/28 05:22:20;;;;;;;4.85;3.65;;;3.10;99.90;;;;;;5089926;28;20043;-76
2023/01/28 05:24:45;;;;;;;6.13;3.78;;;2.40;99.90;;;;;;5043566;28;20032;-75
2023/01/28 05:27:11;;;;;;;4.78;3.50;;;1.90;99.90;;;;;;5057046;28;20172;-76
2023/01/28 05:29:37;;;;;;;5.05;3.97;;;1.80;99.90;;;;;;5074565;28;20028;-76
2023/01/28 05:32:03;;;;;;;5.55;4.22;;;2.90;99.90;;;;;;5089990;28;20051;-76
2023/01/28 05:34:28;;;;;;;4.80;4.00;;;1.90;99.90;;;;;;5060310;28;20048;-76
2023/01/28 05:36:54;;;;;;;4.70;3.90;;;2.40;99.90;;;;;;5061951;28;21234;-76
2023/01/28 05:39:28;;;;;;;6.22;4.40;;;2.50;99.90;;;;;;5075072;28;20036;-76
2023/01/28 05:41:54;;;;;;;5.33;4.43;;;1.80;99.90;;;;;;5043984;28;20020;-76
2023/01/28 05:44:20;;;;;;;5.55;4.57;;;1.80;99.90;;;;;;5059167;28;20308;-76
2023/01/28 05:50:50;;;;;;;9.27;4.32;;;2.50;99.90;;;;;;5022182;28;20068;-75
2023/01/28 05:53:15;;;;;;;5.97;4.10;;;1.70;99.90;;;;;;5034356;28;20130;-75
2023/01/28 05:55:41;;;;;;;5.55;4.35;;;3.30;99.90;;;;;;5048547;28;20122;-75
2023/01/28 05:58:07;;;;;;;5.95;4.75;;;1.80;99.90;;;;;;5063894;28;20075;-76
2023/01/28 06:00:32;;;;;;;5.32;4.60;;;3.70;99.90;;;;;;5080500;28;20587;-75
2023/01/28 06:02:59;;;;;;;5.65;4.47;;;1.80;99.90;;;;;;5080874;28;20039;-76
2023/01/28 06:05:24;;;;;;;4.75;3.97;;;1.80;99.90;;;;;;5095408;28;20035;-75
2023/01/28 06:07:53;;;;;;;6.63;4.65;;;3.50;99.90;;;;;;5065663;28;20035;-75
2023/01/28 06:10:24;;;;;;;6.70;5.18;;;0.50;99.90;;;;;;5075900;28;20081;-75
2023/01/28 06:12:53;;;;;;;5.43;4.03;;;1.80;99.90;;;;;;5080021;28;20052;-76
2023/01/28 06:15:21;;;;;;;6.90;4.18;;;3.50;99.90;;;;;;5092978;28;20074;-75
2023/01/28 06:18:09;;;;;;;6.07;4.50;;;1.80;99.90;;;;;;5073053;28;20211;-76
2023/01/28 06:20:35;;;;;;;6.63;4.60;;;3.10;99.90;;;;;;5060950;28;20035;-75
2023/01/28 06:23:00;;;;;;;8.15;4.57;;;3.30;99.90;;;;;;5060441;28;20095;-74
2023/01/28 06:25:26;;;;;;;5.22;4.68;;;2.10;99.90;;;;;;5065718;28;20040;-75
2023/01/28 06:27:52;;;;;;;6.32;4.82;;;1.80;99.90;;;;;;5082906;28;20058;-75
2023/01/28 06:30:18;;;;;;;5.55;4.70;;;1.80;99.90;;;;;;5083673;28;20068;-75
2023/01/28 06:32:44;;;;;;;6.68;5.18;;;1.80;99.90;;;;;;5094725;28;20068;-75
2023/01/28 06:35:10;;;;;;;6.90;4.95;;;1.70;99.90;;;;;;5083347;28;20119;-76
2023/01/28 06:37:38;;;;;;;6.47;4.80;;;3.10;99.90;;;;;;5080785;28;20130;-75
2023/01/28 06:40:05;;;;;;;7.00;5.15;;;1.70;99.90;;;;;;5094367;28;20081;-75
2023/01/28 06:42:30;;;;;;;7.25;4.78;;;1.70;99.90;;;;;;5100578;28;20198;-77
2023/01/28 06:44:58;;;;;;;8.32;5.30;;;1.80;99.90;;;;;;5060531;28;20055;-75
2023/01/28 06:47:24;;;;;;;6.65;5.30;;;3.70;99.90;;;;;;5065713;28;20086;-76
2023/01/28 06:49:50;;;;;;;7.53;5.13;;;2.10;99.90;;;;;;5077800;28;20303;-76
2023/01/28 06:52:15;;;;;;;7.20;5.05;;;1.70;99.90;;;;;;5074619;28;20035;-76
2023/01/28 06:54:41;;;;;;;7.25;5.35;;;1.60;99.90;;;;;;5078337;28;20215;-77
2023/01/28 06:57:10;;;;;;;7.68;5.40;;;3.10;99.90;;;;;;5094905;28;20028;-75
2023/01/28 06:59:35;;;;;;;7.57;5.47;;;1.60;99.90;;;;;;5079784;28;20077;-75
2023/01/28 07:02:01;;;;;;;7.57;5.78;;;1.80;99.90;;;;;;5079397;28;20023;-76
2023/01/28 07:05:11;;;;;;;7.82;6.05;;;1.50;99.90;;;;;;5048787;28;20031;-75
2023/01/28 07:07:55;;;;;;;7.40;5.65;;;1.50;99.90;;;;;;5089794;28;20043;-74
2023/01/28 07:10:21;;;;;;;7.22;5.68;;;4.10;99.90;;;;;;5086149;28;20220;-73
2023/01/28 07:16:41;;;;;;;8.30;6.05;;;1.30;99.90;;;;;;5026381;28;20042;-74
2023/01/28 07:19:07;;;;;;;9.15;6.53;;;1.60;99.90;;;;;;5086787;28;20322;-75
2023/01/28 07:21:32;;;;;;;7.15;5.97;;;1.50;99.90;;;;;;5069912;28;20043;-75
2023/01/28 07:24:04;;;;;;;10.63;7.05;;;3.40;99.90;;;;;;5080717;28;20027;-76
2023/01/28 07:26:34;;;;;;;9.68;7.55;;;2.50;99.90;;;;;;5103278;28;20043;-76
2023/01/28 07:29:41;;;;;;;10.85;6.90;;;3.20;99.90;;;;;;5086028;28;20062;-76
2023/01/28 07:32:07;;;;;;;9.15;6.50;;;2.10;99.90;;;;;;5062506;28;20055;-75
2023/01/28 07:34:52;;;;;;;;;;;;;;;;;;;;;
2023/01/28 07:37:37;;;;;;;10.98;7.10;;;0.90;99.90;;;;;;5102978;28;20492;-74
2023/01/28 07:40:03;;;;;;;11.38;8.23;;;0.90;99.90;;;;;;5101998;28;20070;-74
2023/01/28 07:42:29;;;;;;;11.20;8.05;;;0.80;99.90;;;;;;5103215;28;20040;-74
2023/01/28 07:45:03;;;;;;;12.02;7.75;;;0.90;99.90;;;;;;5046443;28;20059;-75
2023/01/28 07:47:32;;;;;;;12.25;7.10;;;2.80;99.90;;;;;;5052277;28;20227;-73
2023/01/28 07:53:19;;;;;;;9.48;7.25;;;0.70;99.90;;;;;;5059680;28;20042;-75
2023/01/28 07:55:45;;;;;;;9.40;6.18;;;3.00;99.90;;;;;;5100986;28;20337;-75
2023/01/28 08:02:17;;;;;;;10.90;6.88;;;0.60;99.90;;;;;;5088617;28;20042;-76
2023/01/28 08:04:43;;;;;;;10.18;7.55;;;0.50;99.90;;;;;;5081888;28;20045;-73
2023/01/28 08:07:10;;;;;;;12.40;7.88;;;0.60;99.90;;;;;;5084710;28;20101;-73
2023/01/28 08:09:36;;;;;;;9.73;7.15;;;0.70;99.90;;;;;;5051686;28;20233;-75
2023/01/28 08:12:02;;;;;;;8.75;6.53;;;0.80;99.90;;;;;;5085367;28;20077;-74
2023/01/28 08:14:28;;;;;;;11.38;7.35;;;0.80;99.90;;;;;;5066941;28;20088;-75
2023/01/28 08:16:53;;;;;;;11.05;8.00;;;0.80;99.90;;;;;;5085035;28;20031;-75
2023/01/28 08:19:20;;;;;;;13.45;9.35;;;1.30;99.90;;;;;;5064448;28;20321;-74
2023/01/28 08:21:49;;;;;;;20.23;11.27;;;0.80;99.90;;;;;;5065101;28;20027;-73
2023/01/28 08:24:16;;;;;;;20.13;12.07;;;0.80;99.90;;;;;;5075841;28;20028;-77
2023/01/28 08:26:47;;;;;;;17.25;9.25;;;0.80;99.90;;;;;;5063469;28;20024;-73
2023/01/28 08:29:13;;;;;;;12.30;8.52;;;0.80;99.90;;;;;;5082855;28;20020;-73
2023/01/28 08:31:38;;;;;;;12.27;8.25;;;3.00;99.90;;;;;;5085289;28;20063;-73
2023/01/28 08:34:04;;;;;;;12.98;8.95;;;0.90;99.90;;;;;;5100206;28;20038;-74
2023/01/28 08:36:30;;;;;;;12.30;8.40;;;1.10;99.90;;;;;;5098578;28;20075;-74
2023/01/28 08:38:55;;;;;;;13.35;8.40;;;1.60;99.90;;;;;;5065451;28;20048;-74
2023/01/28 08:41:33;;;;;;;9.65;7.28;;;2.70;99.90;;;;;;5079146;28;20036;-74
2023/01/28 08:43:59;;;;;;;9.45;7.07;;;2.20;99.90;;;;;;5069413;28;20032;-74
2023/01/28 08:46:25;;;;;;;12.57;9.10;;;2.90;99.90;;;;;;5068224;28;20028;-74
2023/01/28 08:48:50;;;;;;;12.00;8.25;;;2.20;99.90;;;;;;5084191;28;20024;-74
2023/01/28 08:51:16;;;;;;;9.43;8.02;;;2.20;99.90;;;;;;5092349;28;20110;-74
2023/01/28 08:53:42;;;;;;;8.52;6.68;;;2.50;99.90;;;;;;5097592;28;20093;-74
2023/01/28 08:56:27;;;;;;;9.07;6.85;;;3.70;99.90;;;;;;5074793;28;20047;-74
2023/01/28 08:58:53;;;;;;;9.10;6.72;;;0.60;99.90;;;;;;5073226;28;20044;-74
2023/01/28 09:01:18;;;;;;;8.57;5.93;;;2.50;99.90;;;;;;5074028;28;20035;-74
2023/01/28 09:03:50;;;;;;;10.40;6.43;;;3.60;99.90;;;;;;5073885;28;20043;-73
2023/01/28 09:06:18;;;;;;;7.30;6.07;;;3.20;99.90;;;;;;5053691;28;20023;-73
2023/01/28 09:08:44;;;;;;;6.45;5.70;;;4.00;99.90;;;;;;5076541;28;20035;-73
2023/01/28 09:11:10;;;;;;;6.15;5.53;;;4.10;99.90;;;;;;5089023;28;20031;-74
2023/01/28 09:13:44;;;;;;;6.53;5.50;;;4.60;99.90;;;;;;5077842;28;20322;-73
2023/01/28 09:16:10;;;;;;;6.22;5.35;;;4.10;99.90;;;;;;5062039;28;20054;-73
2023/01/28 09:18:37;;;;;;;5.90;5.18;;;4.00;99.90;;;;;;5061121;28;20206;-75
2023/01/28 09:21:05;;;;;;;5.95;5.25;;;3.80;99.90;;;;;;5076389;28;20074;-73
2023/01/28 09:23:34;;;;;;;5.63;4.80;;;3.80;99.90;;;;;;5096794;28;20035;-73
2023/01/28 09:26:01;;;;;;;8.18;5.80;;;4.00;99.90;;;;;;5096332;28;20133;-73
2023/01/28 09:28:33;;;;;;;6.75;4.97;;;4.40;99.90;;;;;;5097045;28;20195;-74
2023/01/28 09:31:09;;;;;;;7.88;5.20;;;4.70;99.90;;;;;;5083259;28;20032;-74
2023/01/28 09:33:40;;;;;;;8.50;5.85;;;4.40;99.90;;;;;;5083143;28;20101;-74
2023/01/28 09:36:09;;;;;;;7.85;6.28;;;5.00;99.90;;;;;;5080822;28;20118;-74
2023/01/28 09:38:35;;;;;;;8.38;6.13;;;6.00;99.90;;;;;;5078376;28;20051;-74
2023/01/28 09:41:09;;;;;;;8.27;6.40;;;6.20;99.90;;;;;;5066070;28;20060;-75
2023/01/28 09:43:53;;;;;;;6.72;5.13;;;6.70;99.90;;;;;;5098899;28;20067;-74
2023/01/28 09:46:35;;;;;;;6.28;4.95;;;5.00;99.90;;;;;;5097571;28;20110;-74
2023/01/28 09:49:25;;;;;;;5.95;5.20;;;6.30;99.90;;;;;;5092343;28;20211;-74
2023/01/28 09:51:53;;;;;;;7.03;5.05;;;5.10;99.90;;;;;;5099777;28;20024;-74
2023/01/28 09:54:25;;;;;;;5.60;5.00;;;5.60;99.90;;;;;;5098827;28;20024;-74
2023/01/28 09:57:50;;;;;;;7.22;4.90;;;4.70;99.90;;;;;;5081407;28;20024;-73
2023/01/28 10:00:19;;;;;;;4.90;4.40;;;4.50;99.90;;;;;;5099047;28;20039;-75
2023/01/28 10:03:04;;;;;;;5.40;4.78;;;4.50;99.90;;;;;;5099519;28;20085;-73
2023/01/28 10:09:33;;;;;;;6.90;4.72;;;5.70;99.90;;;;;;5093640;28;20038;-74
2023/01/28 10:12:27;;;;;;;7.75;5.18;;;4.40;99.90;;;;;;5084035;28;20039;-74
2023/01/28 10:15:16;;;;;;;6.05;5.05;;;4.20;99.90;;;;;;5082243;28;20024;-74
2023/01/28 10:17:49;;;;;;;8.05;5.60;;;4.10;99.90;;;;;;5097083;28;20096;-73
2023/01/28 10:20:49;;;;;;;8.05;5.57;;;5.00;99.90;;;;;;5097226;28;20098;-74
2023/01/28 10:23:15;;;;;;;6.40;5.30;;;3.80;99.90;;;;;;5099368;28;20349;-73
2023/01/28 10:25:47;;;;;;;7.20;5.15;;;3.80;99.90;;;;;;5099132;28;20039;-75
2023/01/28 10:28:25;;;;;;;6.97;5.60;;;3.60;99.90;;;;;;5096495;28;20040;-74
2023/01/28 10:30:56;;;;;;;6.32;5.07;;;4.20;99.90;;;;;;5096565;28;20054;-74
2023/01/28 10:35:01;;;;;;;;;;;;;;;;;;;;;
2023/01/28 10:37:16;;;;;;;7.32;4.70;;;7.30;99.90;;;;;;4997780;28;20054;-73
2023/01/28 10:39:43;;;;;;;9.10;5.55;;;6.10;99.90;;;;;;4982010;28;20104;-74
2023/01/28 10:42:38;;;;;;;6.60;5.20;;;6.20;99.90;;;;;;5057200;28;20338;-73
2023/01/28 10:45:39;;;;;;;6.28;4.88;;;6.60;99.90;;;;;;5078438;28;20052;-73
2023/01/28 10:48:28;;;;;;;10.40;5.50;;;5.90;99.90;;;;;;5097661;28;20195;-74
2023/01/28 10:51:00;;;;;;;5.18;4.40;;;7.50;99.90;;;;;;5115791;28;20077;-74
2023/01/28 10:53:41;;;;;;;21.65;5.60;;;8.20;99.90;;;;;;5098827;28;20042;-74
2023/01/28 10:56:22;;;;;;;5.95;5.00;;;8.30;99.90;;;;;;5095003;28;20035;-75
2023/01/28 10:59:14;;;;;;;6.43;4.50;;;8.00;99.90;;;;;;5080284;28;20040;-73
2023/01/28 11:01:58;;;;;;;6.85;5.55;;;7.20;99.90;;;;;;5078136;28;20332;-74
2023/01/28 11:05:24;;;;;;;6.10;5.15;;;7.00;99.90;;;;;;5089379;28;20036;-75
2023/01/28 11:08:22;;;;;;;6.13;4.35;;;6.80;99.90;;;;;;5008565;28;20048;-75
2023/01/28 11:10:57;;;;;;;5.30;4.70;;;6.60;99.90;;;;;;5011562;28;20064;-74
2023/01/28 11:13:47;;;;;;;7.15;5.13;;;6.00;99.90;;;;;;5077227;28;20039;-75
2023/01/28 11:16:17;;;;;;;9.20;5.28;;;7.00;99.90;;;;;;5081038;28;20036;-74
2023/01/28 11:19:06;;;;;;;7.57;4.85;;;5.70;99.90;;;;;;5080184;28;20096;-73
2023/01/28 11:21:35;;;;;;;9.02;5.55;;;5.80;99.90;;;;;;5097297;28;20043;-74
2023/01/28 11:24:07;;;;;;;5.72;4.65;;;5.60;99.90;;;;;;5097455;28;20036;-73
2023/01/28 11:26:59;;;;;;;13.00;5.20;;;5.80;99.90;;;;;;5078693;28;20028;-73
2023/01/28 11:29:41;;;;;;;6.18;4.43;;;5.90;99.90;;;;;;5059324;28;20090;-75
2023/01/28 11:32:20;;;;;;;6.32;4.88;;;5.90;99.90;;;;;;5046323;28;20028;-75
2023/01/28 11:34:56;;;;;;;8.52;4.72;;;6.00;99.90;;;;;;5081639;28;20279;-74
2023/01/28 11:37:23;;;;;;;5.80;4.88;;;6.00;99.90;;;;;;5079111;28;20059;-74
2023/01/28 11:40:13;;;;;;;6.50;4.60;;;5.90;99.90;;;;;;5081267;28;20043;-75
2023/01/28 11:42:39;;;;;;;5.85;4.95;;;5.90;99.90;;;;;;5098080;28;20043;-73
2023/01/28 11:45:16;;;;;;;9.13;5.30;;;6.00;99.90;;;;;;5063840;28;20093;-73
2023/01/28 11:47:48;;;;;;;6.85;5.03;;;6.10;99.90;;;;;;5096970;28;20210;-75
2023/01/28 11:50:34;;;;;;;5.45;4.43;;;6.00;99.90;;;;;;5096598;28;20066;-74
2023/01/28 11:53:06;;;;;;;7.53;4.85;;;6.00;99.90;;;;;;5080645;28;20506;-73
2023/01/28 11:55:49;;;;;;;9.68;4.68;;;6.00;99.90;;;;;;5097712;28;20032;-73
2023/01/28 12:01:52;;;;;;;6.55;4.72;;;6.00;99.90;;;;;;5089938;28;20040;-74
2023/01/28 12:04:37;;;;;;;5.95;4.63;;;6.80;99.90;;;;;;5096685;28;20059;-75
2023/01/28 12:07:24;;;;;;;6.55;4.68;;;5.90;99.90;;;;;;5080354;28;20040;-73
2023/01/28 12:10:15;;;;;;;7.30;4.57;;;6.00;99.90;;;;;;5094143;28;20032;-74
2023/01/28 12:13:20;;;;;;;7.05;4.82;;;6.00;99.90;;;;;;5080368;28;20338;-74
2023/01/28 12:16:22;;;;;;;6.75;5.05;;;5.80;99.90;;;;;;5080005;28;20062;-73
2023/01/28 12:18:50;;;;;;;9.23;5.78;;;5.50;99.90;;;;;;5096050;28;20179;-74
2023/01/28 12:21:39;;;;;;;7.85;5.00;;;5.50;99.90;;;;;;5080315;28;20103;-74
2023/01/28 12:24:39;;;;;;;8.20;5.03;;;5.50;99.90;;;;;;5080291;28;20098;-74
2023/01/28 12:27:08;;;;;;;7.72;5.40;;;5.50;99.90;;;;;;5096766;28;20108;-74
2023/01/28 12:29:54;;;;;;;8.57;4.80;;;5.70;99.90;;;;;;5079723;28;20028;-74
2023/01/28 12:32:56;;;;;;;13.77;6.43;;;6.20;99.90;;;;;;5079224;28;20088;-73
2023/01/28 12:35:49;;;;;;;8.48;5.10;;;6.00;99.90;;;;;;5079914;28;20043;-74
2023/01/28 12:38:39;;;;;;;8.45;5.30;;;6.30;99.90;;;;;;5082774;28;20333;-74
2023/01/28 12:41:17;;;;;;;10.82;5.28;;;6.00;99.90;;;;;;5063856;28;20036;-74
2023/01/28 12:44:02;;;;;;;10.70;5.18;;;5.80;99.90;;;;;;5080139;28;20044;-74
2023/01/28 12:46:35;;;;;;;;;;;6.60;99.90;;;;;;5079623;28;20036;-74
2023/01/28 12:49:07;;;;;;;8.98;5.35;;;5.60;99.90;;;;;;5063468;28;19954;-74
2023/01/28 12:51:57;;;;;;;8.82;5.20;;;5.50;99.90;;;;;;5082811;28;20238;-74
2023/01/28 12:54:53;;;;;;;7.88;5.28;;;5.50;99.90;;;;;;5082955;28;20107;-73
2023/01/28 12:57:25;;;;;;;7.05;5.45;;;5.40;99.90;;;;;;5099549;28;20034;-73
2023/01/28 13:00:14;;;;;;;9.48;6.15;;;5.60;99.90;;;;;;5082650;28;20160;-73
2023/01/28 13:02:45;;;;;;;7.90;5.93;;;5.30;99.90;;;;;;5100472;28;20044;-73
2023/01/28 13:06:06;;;;;;;7.88;5.88;;;5.40;99.90;;;;;;5082068;28;20074;-73
2023/01/28 13:08:31;;;;;;;8.65;6.43;;;5.50;99.90;;;;;;5071538;28;20093;-73
2023/01/28 13:11:00;;;;;;;7.45;5.50;;;5.80;99.90;;;;;;5080959;28;20031;-73
2023/01/28 13:13:32;;;;;;;12.75;6.13;;;6.00;99.90;;;;;;5097455;28;20103;-73
2023/01/28 13:15:59;;;;;;;7.43;6.00;;;5.90;99.90;;;;;;5089430;28;20141;-73
2023/01/28 13:18:40;;;;;;;9.68;6.18;;;5.90;99.90;;;;;;5083204;28;20092;-73
2023/01/28 13:21:25;;;;;;;7.05;5.00;;;5.90;99.90;;;;;;5083158;28;20104;-73
2023/01/28 13:24:08;;;;;;;8.23;5.30;;;5.90;99.90;;;;;;5100337;28;20036;-74
2023/01/28 13:26:56;;;;;;;7.82;5.18;;;5.90;99.90;;;;;;5099313;28;20206;-73
2023/01/28 13:29:29;;;;;;;8.90;5.63;;;5.80;99.90;;;;;;5096814;28;20118;-73
2023/01/28 13:31:58;;;;;;;8.93;5.18;;;5.70;99.90;;;;;;5082813;28;20266;-73
2023/01/28 13:34:32;;;;;;;7.05;5.32;;;5.80;99.90;;;;;;5100178;28;20050;-73
2023/01/28 13:37:17;;;;;;;8.70;5.50;;;5.80;99.90;;;;;;5083028;28;20044;-73
2023/01/28 13:39:54;;;;;;;7.43;5.45;;;5.70;99.90;;;;;;5098213;28;20130;-74
2023/01/28 13:42:26;;;;;;;6.93;5.20;;;5.80;99.90;;;;;;5099506;28;20040;-72
2023/01/28 13:44:52;;;;;;;8.63;5.75;;;5.80;99.90;;;;;;5083379;28;20088;-74
2023/01/28 13:47:34;;;;;;;8.85;5.40;;;5.90;99.90;;;;;;5099338;28;20028;-74
2023/01/28 13:50:36;;;;;;;9.70;5.93;;;5.80;99.90;;;;;;5073743;28;20357;-73
2023/01/28 13:53:22;;;;;;;8.07;5.18;;;5.80;99.90;;;;;;5079672;28;20032;-74
2023/01/28 13:55:53;;;;;;;7.88;5.10;;;5.70;99.90;;;;;;5079034;28;20258;-73
2023/01/28 13:58:48;;;;;;;8.55;5.30;;;5.70;99.90;;;;;;5062482;28;20036;-73
2023/01/28 14:01:32;;;;;;;9.07;5.82;;;5.50;99.90;;;;;;5095122;28;20067;-73
2023/01/28 14:04:33;;;;;;;7.07;5.23;;;5.60;99.90;;;;;;5082882;28;20032;-73
2023/01/28 14:07:20;;;;;;;9.18;4.95;;;5.50;99.90;;;;;;5100730;28;20288;-74
2023/01/28 14:10:27;;;;;;;9.23;5.38;;;5.60;99.90;;;;;;5085527;28;20107;-73
2023/01/28 14:13:07;;;;;;;7.70;5.40;;;5.70;99.90;;;;;;5018521;28;20047;-73
2023/01/28 14:16:06;;;;;;;8.90;5.18;;;5.60;99.90;;;;;;5085097;28;20049;-73
2023/01/28 14:18:43;;;;;;;7.95;5.47;;;5.60;99.90;;;;;;5087089;28;20077;-73
2023/01/28 14:21:18;;;;;;;8.73;5.22;;;5.80;99.90;;;;;;5084439;28;20106;-74
2023/01/28 14:24:19;;;;;;;7.75;5.20;;;5.50;99.90;;;;;;5085555;28;20059;-74
2023/01/28 14:26:51;;;;;;;7.63;5.03;;;5.30;99.90;;;;;;5085945;28;20035;-74
2023/01/28 14:29:31;;;;;;;7.47;5.07;;;5.40;99.90;;;;;;5101818;28;20893;-74
2023/01/28 14:32:03;;;;;;;7.15;5.13;;;5.40;99.90;;;;;;5099242;28;20027;-73
2023/01/28 14:34:34;;;;;;;9.95;5.20;;;6.10;99.90;;;;;;5102392;28;20207;-73
2023/01/28 14:37:17;;;;;;;7.70;4.95;;;5.40;99.90;;;;;;5102538;28;20075;-73